sensor_id;sensor_type;location;lat;lon;timestamp;temperature;humidity
14475;DHT22;7323;50.848;4.334;2023-12-04T00:00:35;4.10;1.00
14475;DHT22;7323;50.848;4.334;2023-12-04T00:03:01;4.10;1.00
14475;DHT22;7323;50.848;4.334;2023-12-04T00:05:27;4.00;1.00
14475;DHT22;7323;50.848;4.334;2023-12-04T00:07:53;4.10;1.00
14475;DHT22;7323;50.848;4.334;2023-12-04T00:10:18;4.10;1.00
14475;DHT22;7323;50.848;4.334;2023-12-04T00:12:44;4.20;1.00
14475;DHT22;7323;50.848;4.334;2023-12-04T00:15:10;4.00;1.00
14475;DHT22;7323;50.848;4.334;2023-12-04T00:17:36;4.00;1.00
14475;DHT22;7323;50.848;4.334;2023-12-04T00:20:07;4.00;1.00
14475;DHT22;7323;50.848;4.334;2023-12-04T00:22:32;4.00;1.00
14475;DHT22;7323;50.848;4.334;2023-12-04T00:24:58;4.10;1.00
14475;DHT22;7323;50.848;4.334;2023-12-04T00:27:24;4.10;1.00
14475;DHT22;7323;50.848;4.334;2023-12-04T00:29:55;4.00;1.00
14475;DHT22;7323;50.848;4.334;2023-12-04T00:32:21;4.00;1.00
14475;DHT22;7323;50.848;4.334;2023-12-04T00:34:47;4.10;1.00
14475;DHT22;7323;50.848;4.334;2023-12-04T00:37:13;3.90;1.00
14475;DHT22;7323;50.848;4.334;2023-12-04T00:39:38;4.10;1.00
14475;DHT22;7323;50.848;4.334;2023-12-04T00:42:04;4.10;1.00
14475;DHT22;7323;50.848;4.334;2023-12-04T00:44:30;4.00;1.00
14475;DHT22;7323;50.848;4.334;2023-12-04T00:46:56;4.10;1.00
14475;DHT22;7323;50.848;4.334;2023-12-04T00:49:21;4.00;1.00
14475;DHT22;7323;50.848;4.334;2023-12-04T00:51:47;4.10;1.00
14475;DHT22;7323;50.848;4.334;2023-12-04T00:54:13;4.00;1.00
14475;DHT22;7323;50.848;4.334;2023-12-04T00:56:38;4.00;1.00
14475;DHT22;7323;50.848;4.334;2023-12-04T00:59:10;4.10;1.00
14475;DHT22;7323;50.848;4.334;2023-12-04T01:01:39;4.10;1.00
14475;DHT22;7323;50.848;4.334;2023-12-04T01:04:04;4.10;1.00
14475;DHT22;7323;50.848;4.334;2023-12-04T01:06:30;4.30;1.00
14475;DHT22;7323;50.848;4.334;2023-12-04T01:08:56;4.20;1.00
14475;DHT22;7323;50.848;4.334;2023-12-04T01:11:22;4.20;1.00
14475;DHT22;7323;50.848;4.334;2023-12-04T01:13:49;4.30;1.00
14475;DHT22;7323;50.848;4.334;2023-12-04T01:16:15;4.30;1.00
14475;DHT22;7323;50.848;4.334;2023-12-04T01:18:41;4.40;1.00
14475;DHT22;7323;50.848;4.334;2023-12-04T01:21:08;4.40;1.00
14475;DHT22;7323;50.848;4.334;2023-12-04T01:23:37;4.30;1.00
14475;DHT22;7323;50.848;4.334;2023-12-04T01:26:05;4.30;1.00
14475;DHT22;7323;50.848;4.334;2023-12-04T01:28:31;4.30;1.00
14475;DHT22;7323;50.848;4.334;2023-12-04T01:30:57;4.30;1.00
14475;DHT22;7323;50.848;4.334;2023-12-04T01:33:22;4.30;1.00
14475;DHT22;7323;50.848;4.334;2023-12-04T01:35:48;4.30;1.00
14475;DHT22;7323;50.848;4.334;2023-12-04T01:38:14;4.20;1.00
14475;DHT22;7323;50.848;4.334;2023-12-04T01:40:39;4.20;1.00
14475;DHT22;7323;50.848;4.334;2023-12-04T01:43:05;4.30;1.00
14475;DHT22;7323;50.848;4.334;2023-12-04T01:45:31;4.30;1.00
14475;DHT22;7323;50.848;4.334;2023-12-04T01:47:57;4.30;1.00
14475;DHT22;7323;50.848;4.334;2023-12-04T01:50:24;4.40;1.00
14475;DHT22;7323;50.848;4.334;2023-12-04T01:52:52;4.30;1.00
14475;DHT22;7323;50.848;4.334;2023-12-04T01:55:19;4.30;1.00
14475;DHT22;7323;50.848;4.334;2023-12-04T01:57:45;4.40;1.00
14475;DHT22;7323;50.848;4.334;2023-12-04T02:00:12;4.30;1.00
14475;DHT22;7323;50.848;4.334;2023-12-04T02:02:39;4.30;1.00
14475;DHT22;7323;50.848;4.334;2023-12-04T02:05:09;4.40;1.00
14475;DHT22;7323;50.848;4.334;2023-12-04T02:07:36;4.40;1.00
14475;DHT22;7323;50.848;4.334;2023-12-04T02:10:03;4.40;1.00
14475;DHT22;7323;50.848;4.334;2023-12-04T02:12:29;4.40;1.00
14475;DHT22;7323;50.848;4.334;2023-12-04T02:14:55;4.30;1.00
14475;DHT22;7323;50.848;4.334;2023-12-04T02:17:22;4.30;1.00
14475;DHT22;7323;50.848;4.334;2023-12-04T02:19:48;4.30;1.00
14475;DHT22;7323;50.848;4.334;2023-12-04T02:22:14;4.40;1.00
14475;DHT22;7323;50.848;4.334;2023-12-04T02:24:39;4.40;1.00
14475;DHT22;7323;50.848;4.334;2023-12-04T02:27:12;4.40;1.00
14475;DHT22;7323;50.848;4.334;2023-12-04T02:29:46;4.50;1.00
14475;DHT22;7323;50.848;4.334;2023-12-04T02:32:15;4.50;1.00
14475;DHT22;7323;50.848;4.334;2023-12-04T02:34:43;4.50;1.00
14475;DHT22;7323;50.848;4.334;2023-12-04T02:37:10;4.50;1.00
14475;DHT22;7323;50.848;4.334;2023-12-04T02:39:36;4.60;1.00
14475;DHT22;7323;50.848;4.334;2023-12-04T02:42:03;4.70;1.00
14475;DHT22;7323;50.848;4.334;2023-12-04T02:44:29;4.60;99.90
14475;DHT22;7323;50.848;4.334;2023-12-04T02:46:54;4.60;99.90
14475;DHT22;7323;50.848;4.334;2023-12-04T02:49:20;4.60;99.90
14475;DHT22;7323;50.848;4.334;2023-12-04T02:51:46;4.70;99.90
14475;DHT22;7323;50.848;4.334;2023-12-04T02:54:11;4.60;99.90
14475;DHT22;7323;50.848;4.334;2023-12-04T02:56:37;4.60;99.90
14475;DHT22;7323;50.848;4.334;2023-12-04T02:59:02;4.50;99.90
14475;DHT22;7323;50.848;4.334;2023-12-04T03:01:28;4.50;1.00
14475;DHT22;7323;50.848;4.334;2023-12-04T03:03:54;4.60;99.90
14475;DHT22;7323;50.848;4.334;2023-12-04T03:06:19;4.60;99.90
14475;DHT22;7323;50.848;4.334;2023-12-04T03:08:45;4.70;99.90
14475;DHT22;7323;50.848;4.334;2023-12-04T03:11:11;4.70;99.90
14475;DHT22;7323;50.848;4.334;2023-12-04T03:13:36;4.70;99.90
14475;DHT22;7323;50.848;4.334;2023-12-04T03:16:02;4.90;99.90
14475;DHT22;7323;50.848;4.334;2023-12-04T03:18:28;4.60;99.90
14475;DHT22;7323;50.848;4.334;2023-12-04T03:20:54;4.70;99.90
14475;DHT22;7323;50.848;4.334;2023-12-04T03:23:20;4.90;99.90
14475;DHT22;7323;50.848;4.334;2023-12-04T03:25:46;4.90;99.90
14475;DHT22;7323;50.848;4.334;2023-12-04T03:28:11;4.80;99.90
14475;DHT22;7323;50.848;4.334;2023-12-04T03:30:38;4.90;99.90
14475;DHT22;7323;50.848;4.334;2023-12-04T03:33:04;4.90;99.90
14475;DHT22;7323;50.848;4.334;2023-12-04T03:35:30;4.80;99.90
14475;DHT22;7323;50.848;4.334;2023-12-04T03:37:55;4.80;99.90
14475;DHT22;7323;50.848;4.334;2023-12-04T03:40:21;4.80;99.90
14475;DHT22;7323;50.848;4.334;2023-12-04T03:42:47;5.10;99.90
14475;DHT22;7323;50.848;4.334;2023-12-04T03:45:12;5.10;99.90
14475;DHT22;7323;50.848;4.334;2023-12-04T03:47:38;5.20;99.90
14475;DHT22;7323;50.848;4.334;2023-12-04T03:50:04;5.10;99.90
14475;DHT22;7323;50.848;4.334;2023-12-04T03:52:30;5.10;99.90
14475;DHT22;7323;50.848;4.334;2023-12-04T03:54:56;5.10;99.90
14475;DHT22;7323;50.848;4.334;2023-12-04T03:57:21;4.90;99.90
14475;DHT22;7323;50.848;4.334;2023-12-04T03:59:47;4.90;99.90
14475;DHT22;7323;50.848;4.334;2023-12-04T04:02:13;5.00;99.90
14475;DHT22;7323;50.848;4.334;2023-12-04T04:04:39;5.00;99.90
14475;DHT22;7323;50.848;4.334;2023-12-04T04:07:04;5.00;99.90
14475;DHT22;7323;50.848;4.334;2023-12-04T04:09:31;5.10;99.90
14475;DHT22;7323;50.848;4.334;2023-12-04T04:11:56;5.30;99.90
14475;DHT22;7323;50.848;4.334;2023-12-04T04:14:22;5.30;99.90
14475;DHT22;7323;50.848;4.334;2023-12-04T04:16:48;5.30;99.90
14475;DHT22;7323;50.848;4.334;2023-12-04T04:19:14;5.30;99.90
14475;DHT22;7323;50.848;4.334;2023-12-04T04:21:40;5.10;99.90
14475;DHT22;7323;50.848;4.334;2023-12-04T04:24:06;5.10;99.90
14475;DHT22;7323;50.848;4.334;2023-12-04T04:26:32;5.10;99.90
14475;DHT22;7323;50.848;4.334;2023-12-04T04:28:58;5.00;99.90
14475;DHT22;7323;50.848;4.334;2023-12-04T04:31:24;4.90;99.90
14475;DHT22;7323;50.848;4.334;2023-12-04T04:33:50;4.80;99.90
14475;DHT22;7323;50.848;4.334;2023-12-04T04:36:16;4.80;99.90
14475;DHT22;7323;50.848;4.334;2023-12-04T04:38:41;4.70;99.90
14475;DHT22;7323;50.848;4.334;2023-12-04T04:41:07;4.60;99.90
14475;DHT22;7323;50.848;4.334;2023-12-04T04:43:33;4.60;99.90
14475;DHT22;7323;50.848;4.334;2023-12-04T04:45:58;4.70;99.90
14475;DHT22;7323;50.848;4.334;2023-12-04T04:48:24;4.90;99.90
14475;DHT22;7323;50.848;4.334;2023-12-04T04:50:50;4.90;99.90
14475;DHT22;7323;50.848;4.334;2023-12-04T04:53:15;4.80;99.90
14475;DHT22;7323;50.848;4.334;2023-12-04T04:55:41;4.70;99.90
14475;DHT22;7323;50.848;4.334;2023-12-04T04:58:07;4.70;99.90
14475;DHT22;7323;50.848;4.334;2023-12-04T05:00:32;4.80;99.90
14475;DHT22;7323;50.848;4.334;2023-12-04T05:02:58;4.80;99.90
14475;DHT22;7323;50.848;4.334;2023-12-04T05:05:24;4.80;99.90
14475;DHT22;7323;50.848;4.334;2023-12-04T05:07:49;4.90;99.90
14475;DHT22;7323;50.848;4.334;2023-12-04T05:10:15;4.90;99.90
14475;DHT22;7323;50.848;4.334;2023-12-04T05:12:41;4.80;99.90
14475;DHT22;7323;50.848;4.334;2023-12-04T05:15:06;4.80;99.90
14475;DHT22;7323;50.848;4.334;2023-12-04T05:17:32;4.70;99.90
14475;DHT22;7323;50.848;4.334;2023-12-04T05:19:58;4.70;99.90
14475;DHT22;7323;50.848;4.334;2023-12-04T05:22:24;4.70;99.90
14475;DHT22;7323;50.848;4.334;2023-12-04T05:24:49;4.90;99.90
14475;DHT22;7323;50.848;4.334;2023-12-04T05:27:15;4.80;99.90
14475;DHT22;7323;50.848;4.334;2023-12-04T05:29:41;4.90;99.90
14475;DHT22;7323;50.848;4.334;2023-12-04T05:32:06;5.00;99.90
14475;DHT22;7323;50.848;4.334;2023-12-04T05:34:32;4.90;99.90
14475;DHT22;7323;50.848;4.334;2023-12-04T05:36:58;4.90;88.90
14475;DHT22;7323;50.848;4.334;2023-12-04T05:39:23;5.10;36.50
14475;DHT22;7323;50.848;4.334;2023-12-04T05:41:49;5.00;4.90
14475;DHT22;7323;50.848;4.334;2023-12-04T05:44:15;5.10;1.00
14475;DHT22;7323;50.848;4.334;2023-12-04T05:46:40;5.20;1.00
14475;DHT22;7323;50.848;4.334;2023-12-04T05:49:06;5.10;1.00
14475;DHT22;7323;50.848;4.334;2023-12-04T05:51:32;5.10;1.00
14475;DHT22;7323;50.848;4.334;2023-12-04T05:53:58;5.30;1.00
14475;DHT22;7323;50.848;4.334;2023-12-04T05:56:23;5.30;1.00
14475;DHT22;7323;50.848;4.334;2023-12-04T05:58:49;5.30;1.00
14475;DHT22;7323;50.848;4.334;2023-12-04T06:01:15;5.30;1.00
14475;DHT22;7323;50.848;4.334;2023-12-04T06:03:41;5.30;1.00
14475;DHT22;7323;50.848;4.334;2023-12-04T06:06:07;5.20;1.00
14475;DHT22;7323;50.848;4.334;2023-12-04T06:08:32;5.40;1.00
14475;DHT22;7323;50.848;4.334;2023-12-04T06:10:58;5.30;1.00
14475;DHT22;7323;50.848;4.334;2023-12-04T06:13:24;5.20;1.00
14475;DHT22;7323;50.848;4.334;2023-12-04T06:15:49;5.20;1.00
14475;DHT22;7323;50.848;4.334;2023-12-04T06:18:15;5.10;1.00
14475;DHT22;7323;50.848;4.334;2023-12-04T06:20:41;5.10;1.00
14475;DHT22;7323;50.848;4.334;2023-12-04T06:23:06;5.30;1.00
14475;DHT22;7323;50.848;4.334;2023-12-04T06:25:32;5.10;1.00
14475;DHT22;7323;50.848;4.334;2023-12-04T06:27:58;5.10;16.30
14475;DHT22;7323;50.848;4.334;2023-12-04T06:30:25;5.00;14.20
14475;DHT22;7323;50.848;4.334;2023-12-04T06:32:51;5.10;7.60
14475;DHT22;7323;50.848;4.334;2023-12-04T06:35:17;5.10;82.00
14475;DHT22;7323;50.848;4.334;2023-12-04T06:37:43;5.00;99.90
14475;DHT22;7323;50.848;4.334;2023-12-04T06:40:11;5.00;99.90
14475;DHT22;7323;50.848;4.334;2023-12-04T06:42:38;5.00;99.90
14475;DHT22;7323;50.848;4.334;2023-12-04T06:45:04;4.90;99.90
14475;DHT22;7323;50.848;4.334;2023-12-04T06:47:31;4.90;99.90
14475;DHT22;7323;50.848;4.334;2023-12-04T06:49:59;4.90;99.90
14475;DHT22;7323;50.848;4.334;2023-12-04T06:52:24;4.90;99.90
14475;DHT22;7323;50.848;4.334;2023-12-04T06:54:50;4.90;99.90
14475;DHT22;7323;50.848;4.334;2023-12-04T06:57:16;4.90;99.90
14475;DHT22;7323;50.848;4.334;2023-12-04T06:59:42;4.90;99.90
14475;DHT22;7323;50.848;4.334;2023-12-04T07:02:08;4.90;99.90
14475;DHT22;7323;50.848;4.334;2023-12-04T07:04:34;4.90;99.90
14475;DHT22;7323;50.848;4.334;2023-12-04T07:06:59;5.00;99.90
14475;DHT22;7323;50.848;4.334;2023-12-04T07:09:34;5.00;99.90
14475;DHT22;7323;50.848;4.334;2023-12-04T07:12:00;5.00;99.90
14475;DHT22;7323;50.848;4.334;2023-12-04T07:14:26;5.20;99.90
14475;DHT22;7323;50.848;4.334;2023-12-04T07:16:52;5.10;99.90
14475;DHT22;7323;50.848;4.334;2023-12-04T07:19:18;5.10;99.90
14475;DHT22;7323;50.848;4.334;2023-12-04T07:21:44;5.00;99.90
14475;DHT22;7323;50.848;4.334;2023-12-04T07:24:09;5.20;99.90
14475;DHT22;7323;50.848;4.334;2023-12-04T07:26:35;5.10;99.90
14475;DHT22;7323;50.848;4.334;2023-12-04T07:29:02;5.20;99.90
14475;DHT22;7323;50.848;4.334;2023-12-04T07:31:28;5.10;99.90
14475;DHT22;7323;50.848;4.334;2023-12-04T07:33:54;5.10;99.90
14475;DHT22;7323;50.848;4.334;2023-12-04T07:36:19;5.30;99.90
14475;DHT22;7323;50.848;4.334;2023-12-04T07:38:45;5.20;99.90
14475;DHT22;7323;50.848;4.334;2023-12-04T07:41:11;5.20;99.90
14475;DHT22;7323;50.848;4.334;2023-12-04T07:43:37;5.20;99.90
14475;DHT22;7323;50.848;4.334;2023-12-04T07:46:03;5.30;99.90
14475;DHT22;7323;50.848;4.334;2023-12-04T07:48:30;5.20;99.90
14475;DHT22;7323;50.848;4.334;2023-12-04T07:50:55;5.30;99.90
14475;DHT22;7323;50.848;4.334;2023-12-04T07:53:21;5.30;99.90
14475;DHT22;7323;50.848;4.334;2023-12-04T07:55:48;5.20;99.90
14475;DHT22;7323;50.848;4.334;2023-12-04T07:58:17;5.20;99.90
14475;DHT22;7323;50.848;4.334;2023-12-04T08:00:43;5.30;99.90
14475;DHT22;7323;50.848;4.334;2023-12-04T08:03:09;5.30;1.00
14475;DHT22;7323;50.848;4.334;2023-12-04T08:05:35;5.30;99.90
14475;DHT22;7323;50.848;4.334;2023-12-04T08:08:01;5.30;1.00
14475;DHT22;7323;50.848;4.334;2023-12-04T08:10:27;5.20;1.00
14475;DHT22;7323;50.848;4.334;2023-12-04T08:12:52;5.30;1.00
14475;DHT22;7323;50.848;4.334;2023-12-04T08:15:18;5.40;1.00
14475;DHT22;7323;50.848;4.334;2023-12-04T08:17:44;5.50;1.00
14475;DHT22;7323;50.848;4.334;2023-12-04T08:20:10;5.60;1.00
14475;DHT22;7323;50.848;4.334;2023-12-04T08:22:42;5.50;1.00
14475;DHT22;7323;50.848;4.334;2023-12-04T08:25:10;5.60;1.00
14475;DHT22;7323;50.848;4.334;2023-12-04T08:27:36;5.70;1.00
14475;DHT22;7323;50.848;4.334;2023-12-04T08:30:01;5.60;1.00
14475;DHT22;7323;50.848;4.334;2023-12-04T08:32:29;5.60;1.00
14475;DHT22;7323;50.848;4.334;2023-12-04T08:34:55;5.50;1.00
14475;DHT22;7323;50.848;4.334;2023-12-04T08:37:21;5.40;1.00
14475;DHT22;7323;50.848;4.334;2023-12-04T08:39:46;5.50;1.00
14475;DHT22;7323;50.848;4.334;2023-12-04T08:42:12;5.50;1.00
14475;DHT22;7323;50.848;4.334;2023-12-04T08:44:38;5.40;1.00
14475;DHT22;7323;50.848;4.334;2023-12-04T08:47:04;5.40;1.00
14475;DHT22;7323;50.848;4.334;2023-12-04T08:49:30;5.50;1.00
14475;DHT22;7323;50.848;4.334;2023-12-04T08:51:56;5.50;1.00
14475;DHT22;7323;50.848;4.334;2023-12-04T08:54:22;5.50;1.00
14475;DHT22;7323;50.848;4.334;2023-12-04T08:56:48;5.40;1.00
14475;DHT22;7323;50.848;4.334;2023-12-04T08:59:14;5.60;1.00
14475;DHT22;7323;50.848;4.334;2023-12-04T09:01:39;5.50;1.00
14475;DHT22;7323;50.848;4.334;2023-12-04T09:04:05;5.40;1.00
14475;DHT22;7323;50.848;4.334;2023-12-04T09:06:32;5.50;1.00
14475;DHT22;7323;50.848;4.334;2023-12-04T09:08:58;5.70;1.00
14475;DHT22;7323;50.848;4.334;2023-12-04T09:11:23;5.60;1.00
14475;DHT22;7323;50.848;4.334;2023-12-04T09:13:49;5.40;1.00
14475;DHT22;7323;50.848;4.334;2023-12-04T09:16:16;5.30;1.00
14475;DHT22;7323;50.848;4.334;2023-12-04T09:18:42;5.40;1.00
14475;DHT22;7323;50.848;4.334;2023-12-04T09:21:08;5.40;1.00
14475;DHT22;7323;50.848;4.334;2023-12-04T09:23:35;5.50;1.00
14475;DHT22;7323;50.848;4.334;2023-12-04T09:26:00;5.40;1.00
14475;DHT22;7323;50.848;4.334;2023-12-04T09:28:26;5.60;1.00
14475;DHT22;7323;50.848;4.334;2023-12-04T09:30:52;5.60;1.00
14475;DHT22;7323;50.848;4.334;2023-12-04T09:33:18;5.70;1.00
14475;DHT22;7323;50.848;4.334;2023-12-04T09:35:44;5.70;1.00
14475;DHT22;7323;50.848;4.334;2023-12-04T09:38:10;5.70;1.00
14475;DHT22;7323;50.848;4.334;2023-12-04T09:40:36;5.60;1.00
14475;DHT22;7323;50.848;4.334;2023-12-04T09:43:03;5.50;1.00
14475;DHT22;7323;50.848;4.334;2023-12-04T09:45:29;5.30;1.00
14475;DHT22;7323;50.848;4.334;2023-12-04T09:47:58;5.40;1.00
14475;DHT22;7323;50.848;4.334;2023-12-04T09:50:24;5.30;1.00
14475;DHT22;7323;50.848;4.334;2023-12-04T09:52:51;5.30;1.00
14475;DHT22;7323;50.848;4.334;2023-12-04T09:55:17;5.30;1.00
14475;DHT22;7323;50.848;4.334;2023-12-04T09:57:44;5.40;1.00
14475;DHT22;7323;50.848;4.334;2023-12-04T10:00:12;5.40;1.00
14475;DHT22;7323;50.848;4.334;2023-12-04T10:02:39;5.40;1.00
14475;DHT22;7323;50.848;4.334;2023-12-04T10:05:06;5.20;1.00
14475;DHT22;7323;50.848;4.334;2023-12-04T10:07:31;5.10;1.00
14475;DHT22;7323;50.848;4.334;2023-12-04T10:09:57;5.00;9.40
14475;DHT22;7323;50.848;4.334;2023-12-04T10:12:23;5.00;15.10
14475;DHT22;7323;50.848;4.334;2023-12-04T10:15:10;5.10;17.80
14475;DHT22;7323;50.848;4.334;2023-12-04T10:17:37;5.00;22.00
14475;DHT22;7323;50.848;4.334;2023-12-04T10:20:12;5.00;26.50
14475;DHT22;7323;50.848;4.334;2023-12-04T10:22:39;5.00;29.90
14475;DHT22;7323;50.848;4.334;2023-12-04T10:25:15;5.10;28.50
14475;DHT22;7323;50.848;4.334;2023-12-04T10:27:41;5.20;27.00
14475;DHT22;7323;50.848;4.334;2023-12-04T10:30:07;5.10;28.40
14475;DHT22;7323;50.848;4.334;2023-12-04T10:32:38;5.00;32.30
14475;DHT22;7323;50.848;4.334;2023-12-04T10:35:05;4.90;40.70
14475;DHT22;7323;50.848;4.334;2023-12-04T10:37:36;5.10;44.60
14475;DHT22;7323;50.848;4.334;2023-12-04T10:40:03;5.00;43.70
14475;DHT22;7323;50.848;4.334;2023-12-04T10:42:30;5.00;49.30
14475;DHT22;7323;50.848;4.334;2023-12-04T10:44:56;5.00;51.90
14475;DHT22;7323;50.848;4.334;2023-12-04T10:47:23;5.00;50.80
14475;DHT22;7323;50.848;4.334;2023-12-04T10:49:49;5.10;48.90
14475;DHT22;7323;50.848;4.334;2023-12-04T10:52:16;5.00;51.70
14475;DHT22;7323;50.848;4.334;2023-12-04T10:54:47;5.20;51.30
14475;DHT22;7323;50.848;4.334;2023-12-04T10:57:20;5.30;48.10
14475;DHT22;7323;50.848;4.334;2023-12-04T10:59:47;5.10;46.00
14475;DHT22;7323;50.848;4.334;2023-12-04T11:02:19;5.20;49.00
14475;DHT22;7323;50.848;4.334;2023-12-04T11:04:50;5.10;50.30
14475;DHT22;7323;50.848;4.334;2023-12-04T11:07:18;5.10;53.00
14475;DHT22;7323;50.848;4.334;2023-12-04T11:09:46;5.30;54.50
14475;DHT22;7323;50.848;4.334;2023-12-04T11:12:18;5.30;51.70
14475;DHT22;7323;50.848;4.334;2023-12-04T11:14:51;5.30;52.20
14475;DHT22;7323;50.848;4.334;2023-12-04T11:17:19;5.50;48.00
14475;DHT22;7323;50.848;4.334;2023-12-04T11:20:13;5.50;39.00
14475;DHT22;7323;50.848;4.334;2023-12-04T11:22:44;5.60;38.00
14475;DHT22;7323;50.848;4.334;2023-12-04T11:25:12;5.60;35.50
14475;DHT22;7323;50.848;4.334;2023-12-04T11:27:38;5.60;34.00
14475;DHT22;7323;50.848;4.334;2023-12-04T11:30:05;5.50;34.20
14475;DHT22;7323;50.848;4.334;2023-12-04T11:32:35;5.60;37.00
14475;DHT22;7323;50.848;4.334;2023-12-04T11:35:12;5.60;33.70
14475;DHT22;7323;50.848;4.334;2023-12-04T11:37:40;5.70;31.10
14475;DHT22;7323;50.848;4.334;2023-12-04T11:40:06;5.80;28.50
14475;DHT22;7323;50.848;4.334;2023-12-04T11:42:33;5.60;24.30
14475;DHT22;7323;50.848;4.334;2023-12-04T11:44:59;5.50;26.90
14475;DHT22;7323;50.848;4.334;2023-12-04T11:47:24;5.60;29.30
14475;DHT22;7323;50.848;4.334;2023-12-04T11:49:50;5.60;29.40
14475;DHT22;7323;50.848;4.334;2023-12-04T11:52:16;5.70;28.80
14475;DHT22;7323;50.848;4.334;2023-12-04T11:55:03;5.60;28.90
14475;DHT22;7323;50.848;4.334;2023-12-04T11:57:43;5.60;28.60
14475;DHT22;7323;50.848;4.334;2023-12-04T12:00:18;5.60;27.10
14475;DHT22;7323;50.848;4.334;2023-12-04T12:05:20;5.80;23.70
14475;DHT22;7323;50.848;4.334;2023-12-04T12:07:47;5.80;21.20
14475;DHT22;7323;50.848;4.334;2023-12-04T12:10:13;5.70;21.90
14475;DHT22;7323;50.848;4.334;2023-12-04T12:12:42;5.80;20.40
14475;DHT22;7323;50.848;4.334;2023-12-04T12:15:12;5.90;18.20
14475;DHT22;7323;50.848;4.334;2023-12-04T12:17:38;5.90;15.40
14475;DHT22;7323;50.848;4.334;2023-12-04T12:20:14;6.00;13.70
14475;DHT22;7323;50.848;4.334;2023-12-04T12:22:40;5.90;15.20
14475;DHT22;7323;50.848;4.334;2023-12-04T12:25:10;5.90;15.70
14475;DHT22;7323;50.848;4.334;2023-12-04T12:27:36;5.90;16.40
14475;DHT22;7323;50.848;4.334;2023-12-04T12:30:02;6.00;18.20
14475;DHT22;7323;50.848;4.334;2023-12-04T12:32:34;5.90;14.90
14475;DHT22;7323;50.848;4.334;2023-12-04T12:35:00;6.00;18.20
14475;DHT22;7323;50.848;4.334;2023-12-04T12:37:26;6.00;20.20
14475;DHT22;7323;50.848;4.334;2023-12-04T12:39:52;6.10;20.90
14475;DHT22;7323;50.848;4.334;2023-12-04T12:42:24;6.00;19.60
14475;DHT22;7323;50.848;4.334;2023-12-04T12:44:51;6.10;21.50
14475;DHT22;7323;50.848;4.334;2023-12-04T12:47:17;6.10;21.80
14475;DHT22;7323;50.848;4.334;2023-12-04T12:49:43;6.10;23.20
14475;DHT22;7323;50.848;4.334;2023-12-04T12:52:10;6.10;23.80
14475;DHT22;7323;50.848;4.334;2023-12-04T12:54:37;5.90;26.40
14475;DHT22;7323;50.848;4.334;2023-12-04T12:57:03;6.10;28.40
14475;DHT22;7323;50.848;4.334;2023-12-04T12:59:29;6.00;29.80
14475;DHT22;7323;50.848;4.334;2023-12-04T13:01:55;6.00;30.30
14475;DHT22;7323;50.848;4.334;2023-12-04T13:04:22;6.10;32.70
14475;DHT22;7323;50.848;4.334;2023-12-04T13:06:48;5.90;35.50
14475;DHT22;7323;50.848;4.334;2023-12-04T13:09:14;6.10;60.40
14475;DHT22;7323;50.848;4.334;2023-12-04T13:11:46;6.10;60.90
14475;DHT22;7323;50.848;4.334;2023-12-04T13:14:13;5.90;67.30
14475;DHT22;7323;50.848;4.334;2023-12-04T13:16:39;5.80;76.90
14475;DHT22;7323;50.848;4.334;2023-12-04T13:19:05;6.10;80.50
14475;DHT22;7323;50.848;4.334;2023-12-04T13:21:31;6.10;76.00
14475;DHT22;7323;50.848;4.334;2023-12-04T13:23:58;6.30;71.30
14475;DHT22;7323;50.848;4.334;2023-12-04T13:26:24;6.30;68.40
14475;DHT22;7323;50.848;4.334;2023-12-04T13:28:49;6.10;70.40
14475;DHT22;7323;50.848;4.334;2023-12-04T13:31:15;6.20;74.30
14475;DHT22;7323;50.848;4.334;2023-12-04T13:33:41;6.10;74.20
14475;DHT22;7323;50.848;4.334;2023-12-04T13:36:08;6.40;75.20
14475;DHT22;7323;50.848;4.334;2023-12-04T13:38:34;6.40;70.00
14475;DHT22;7323;50.848;4.334;2023-12-04T13:41:01;6.40;69.30
14475;DHT22;7323;50.848;4.334;2023-12-04T13:43:44;6.40;69.30
14475;DHT22;7323;50.848;4.334;2023-12-04T13:46:15;6.40;71.20
14475;DHT22;7323;50.848;4.334;2023-12-04T13:48:41;6.30;72.40
14475;DHT22;7323;50.848;4.334;2023-12-04T13:51:09;6.40;78.60
14475;DHT22;7323;50.848;4.334;2023-12-04T13:53:35;6.40;80.10
14475;DHT22;7323;50.848;4.334;2023-12-04T13:56:01;6.50;80.30
14475;DHT22;7323;50.848;4.334;2023-12-04T13:58:27;6.50;79.90
14475;DHT22;7323;50.848;4.334;2023-12-04T14:01:01;6.60;75.40
14475;DHT22;7323;50.848;4.334;2023-12-04T14:03:37;6.60;83.60
14475;DHT22;7323;50.848;4.334;2023-12-04T14:06:03;6.30;99.90
14475;DHT22;7323;50.848;4.334;2023-12-04T14:08:29;6.00;99.90
14475;DHT22;7323;50.848;4.334;2023-12-04T14:10:55;6.10;96.30
14475;DHT22;7323;50.848;4.334;2023-12-04T14:13:21;6.10;99.00
14475;DHT22;7323;50.848;4.334;2023-12-04T14:15:46;6.00;99.90
14475;DHT22;7323;50.848;4.334;2023-12-04T14:18:12;5.90;99.90
14475;DHT22;7323;50.848;4.334;2023-12-04T14:20:38;6.10;99.90
14475;DHT22;7323;50.848;4.334;2023-12-04T14:23:04;6.30;99.90
14475;DHT22;7323;50.848;4.334;2023-12-04T14:25:30;6.30;99.90
14475;DHT22;7323;50.848;4.334;2023-12-04T14:27:56;6.00;99.90
14475;DHT22;7323;50.848;4.334;2023-12-04T14:30:21;6.10;99.90
14475;DHT22;7323;50.848;4.334;2023-12-04T14:32:47;6.00;99.90
14475;DHT22;7323;50.848;4.334;2023-12-04T14:35:14;6.10;99.90
14475;DHT22;7323;50.848;4.334;2023-12-04T14:37:40;6.10;99.90
14475;DHT22;7323;50.848;4.334;2023-12-04T14:40:06;6.20;99.90
14475;DHT22;7323;50.848;4.334;2023-12-04T14:42:32;6.40;99.90
14475;DHT22;7323;50.848;4.334;2023-12-04T14:44:57;6.40;99.90
14475;DHT22;7323;50.848;4.334;2023-12-04T14:47:23;6.40;99.90
14475;DHT22;7323;50.848;4.334;2023-12-04T14:49:49;6.60;99.90
14475;DHT22;7323;50.848;4.334;2023-12-04T14:52:19;6.40;99.90
14475;DHT22;7323;50.848;4.334;2023-12-04T14:54:47;6.40;99.90
14475;DHT22;7323;50.848;4.334;2023-12-04T14:57:16;6.30;99.90
14475;DHT22;7323;50.848;4.334;2023-12-04T14:59:45;6.20;99.90
14475;DHT22;7323;50.848;4.334;2023-12-04T15:02:29;6.40;99.90
14475;DHT22;7323;50.848;4.334;2023-12-04T15:05:13;6.30;99.90
14475;DHT22;7323;50.848;4.334;2023-12-04T15:08:01;6.40;99.90
14475;DHT22;7323;50.848;4.334;2023-12-04T15:10:45;6.40;99.90
14475;DHT22;7323;50.848;4.334;2023-12-04T15:13:29;6.20;99.90
14475;DHT22;7323;50.848;4.334;2023-12-04T15:15:55;6.30;99.90
14475;DHT22;7323;50.848;4.334;2023-12-04T15:18:50;6.50;99.90
14475;DHT22;7323;50.848;4.334;2023-12-04T15:21:18;6.60;99.90
14475;DHT22;7323;50.848;4.334;2023-12-04T15:23:44;6.40;99.90
14475;DHT22;7323;50.848;4.334;2023-12-04T15:26:10;6.50;99.90
14475;DHT22;7323;50.848;4.334;2023-12-04T15:28:38;6.60;99.90
14475;DHT22;7323;50.848;4.334;2023-12-04T15:31:04;6.60;99.90
14475;DHT22;7323;50.848;4.334;2023-12-04T15:33:30;6.60;99.90
14475;DHT22;7323;50.848;4.334;2023-12-04T15:35:56;6.60;99.90
14475;DHT22;7323;50.848;4.334;2023-12-04T15:38:22;6.40;99.90
14475;DHT22;7323;50.848;4.334;2023-12-04T15:40:48;6.30;99.90
14475;DHT22;7323;50.848;4.334;2023-12-04T15:43:13;6.50;99.90
14475;DHT22;7323;50.848;4.334;2023-12-04T15:45:39;6.50;99.90
14475;DHT22;7323;50.848;4.334;2023-12-04T15:48:06;6.40;99.90
14475;DHT22;7323;50.848;4.334;2023-12-04T15:50:32;6.50;99.90
14475;DHT22;7323;50.848;4.334;2023-12-04T15:52:58;6.40;99.90
14475;DHT22;7323;50.848;4.334;2023-12-04T15:55:25;6.50;99.90
14475;DHT22;7323;50.848;4.334;2023-12-04T15:57:53;6.60;99.90
14475;DHT22;7323;50.848;4.334;2023-12-04T16:00:25;6.70;99.90
14475;DHT22;7323;50.848;4.334;2023-12-04T16:02:52;6.80;99.90
14475;DHT22;7323;50.848;4.334;2023-12-04T16:05:18;6.80;99.90
14475;DHT22;7323;50.848;4.334;2023-12-04T16:07:44;6.70;99.90